Time;durP1;ratioP1;P1;durP2;ratioP2;P2;SDS_P1;SDS_P2;PMS_P1;PMS_P2;Temp;Humidity;BMP_temperature;BMP_pressure;BME280_temperature;BME280_humidity;BME280_pressure;Samples;Min_cycle;Max_cycle;Signal;HPM_P1;HPM_P2
2023/06/07 00:01:59;;;;;;;5.73;1.70;;;;;;;19.89;61.06;99254.28;6185959;23;20143;-90
2023/06/07 00:04:25;;;;;;;4.13;1.47;;;;;;;19.78;61.94;99259.72;6186073;23;20554;-89
2023/06/07 00:07:00;;;;;;;7.27;1.87;;;;;;;19.75;62.12;99254.66;6186588;23;20150;-89
2023/06/07 00:09:30;;;;;;;3.73;1.97;;;;;;;19.69;62.51;99260.50;6186558;23;20138;-89
2023/06/07 00:11:58;;;;;;;3.60;1.77;;;;;;;19.61;62.97;99258.53;6160359;23;20155;-89
2023/06/07 00:14:25;;;;;;;5.63;1.57;;;;;;;19.49;63.88;99262.25;6185948;23;20150;-89
2023/06/07 00:16:53;;;;;;;3.40;1.70;;;;;;;19.42;64.46;99263.75;6159820;23;20154;-89
2023/06/07 00:19:21;;;;;;;3.47;1.73;;;;;;;19.38;64.66;99262.34;6185855;23;20150;-89
2023/06/07 00:21:50;;;;;;;5.90;2.17;;;;;;;19.29;65.34;99263.94;6185980;23;20150;-89
2023/06/07 00:24:16;;;;;;;5.53;2.10;;;;;;;19.29;65.67;99257.78;6159774;23;20244;-89
2023/06/07 00:26:42;;;;;;;7.10;2.03;;;;;;;19.28;65.37;99250.78;6185801;23;20177;-89
2023/06/07 00:29:07;;;;;;;5.80;1.70;;;;;;;19.29;65.45;99247.16;6185769;23;20235;-89
2023/06/07 00:31:33;;;;;;;3.60;1.97;;;;;;;19.32;65.43;99252.19;6185621;23;20271;-89
2023/06/07 00:33:59;;;;;;;4.87;1.73;;;;;;;19.25;65.35;99243.09;6185710;23;20178;-89
2023/06/07 00:36:25;;;;;;;6.20;2.20;;;;;;;19.22;65.55;99243.34;6186418;23;20305;-89
2023/06/07 00:38:50;;;;;;;3.37;1.63;;;;;;;19.19;65.89;99243.59;6159750;23;20605;-89
2023/06/07 00:41:16;;;;;;;11.23;1.90;;;;;;;19.14;66.01;99244.00;6185993;23;20153;-89
2023/06/07 00:43:42;;;;;;;6.47;1.90;;;;;;;19.20;65.80;99245.31;6185743;23;20563;-89
2023/06/07 00:46:08;;;;;;;4.63;1.60;;;;;;;19.22;65.38;99240.69;6186247;23;20168;-89
2023/06/07 00:48:38;;;;;;;6.67;2.20;;;;;;;19.19;65.01;99240.94;6185977;23;20155;-89
2023/06/07 00:51:07;;;;;;;4.17;1.73;;;;;;;19.20;64.51;99243.50;6159360;23;20498;-88
2023/06/07 00:53:34;;;;;;;2.77;1.40;;;;;;;19.20;64.60;99237.31;6159878;23;20158;-89
2023/06/07 00:56:00;;;;;;;6.40;1.87;;;;;;;19.14;64.90;99237.84;6159527;23;20158;-89
2023/06/07 00:58:35;;;;;;;3.70;1.53;;;;;;;19.16;64.41;99235.88;6185396;23;20158;-90
2023/06/07 01:01:02;;;;;;;7.33;1.90;;;;;;;19.17;64.36;99240.25;6185493;23;20207;-89
2023/06/07 01:03:36;;;;;;;4.20;1.80;;;;;;;19.21;64.21;99244.34;6186128;23;20549;-90
2023/06/07 01:06:05;;;;;;;5.93;2.07;;;;;;;19.17;65.14;99240.25;6159873;23;20218;-90
2023/06/07 01:08:33;;;;;;;6.80;2.63;;;;;;;19.12;65.75;99234.50;6185823;23;20149;-90
2023/06/07 01:11:03;;;;;;;6.50;2.00;;;;;;;19.13;66.24;99236.19;6159987;23;20590;-90
2023/06/07 01:13:31;;;;;;;8.20;2.57;;;;;;;19.13;66.42;99230.88;6159385;23;20471;-90
2023/06/07 01:15:59;;;;;;;8.57;3.87;;;;;;;19.16;66.99;99225.25;6185352;23;20157;-90
2023/06/07 01:18:26;;;;;;;8.67;3.53;;;;;;;19.20;67.52;99229.34;6185557;23;20165;-89
2023/06/07 01:20:55;;;;;;;8.33;3.70;;;;;;;19.24;68.00;99228.94;6185276;23;20558;-89
2023/06/07 01:23:32;;;;;;;10.53;3.90;;;;;;;19.23;68.59;99232.59;6185354;23;20185;-89
2023/06/07 01:26:01;;;;;;;7.87;3.93;;;;;;;19.25;68.74;99232.44;6185386;23;20154;-89
2023/06/07 01:28:33;;;;;;;10.60;3.53;;;;;;;19.30;68.17;99236.41;6185679;23;20603;-90
2023/06/07 01:31:05;;;;;;;7.47;3.67;;;;;;;19.30;68.23;99233.75;6159176;23;20178;-89
2023/06/07 01:33:33;;;;;;;6.93;3.60;;;;;;;19.29;68.15;99232.03;6159336;23;20227;-89
2023/06/07 01:36:01;;;;;;;8.37;4.03;;;;;;;19.23;68.45;99229.09;6185269;23;20146;-89
2023/06/07 01:38:30;;;;;;;11.87;4.03;;;;;;;19.21;68.76;99231.88;6135015;23;20163;-89
2023/06/07 01:40:57;;;;;;;11.80;3.97;;;;;;;19.28;68.60;99226.88;6185207;23;20146;-89
2023/06/07 01:43:25;;;;;;;11.73;4.50;;;;;;;19.36;68.09;99227.06;6159275;23;20169;-89
2023/06/07 01:45:53;;;;;;;8.70;3.20;;;;;;;19.39;68.07;99232.16;6159176;23;20165;-89
2023/06/07 01:48:20;;;;;;;10.23;4.37;;;;;;;19.32;68.17;99220.31;6185746;23;20472;-89
2023/06/07 01:50:47;;;;;;;8.73;4.60;;;;;;;19.30;68.96;99217.78;6159168;23;20497;-90
2023/06/07 01:53:14;;;;;;;13.17;4.70;;;;;;;19.25;69.50;99221.81;6159061;23;20164;-89
2023/06/07 01:55:41;;;;;;;11.87;5.30;;;;;;;19.12;70.44;99213.22;6185964;23;20184;-89
2023/06/07 01:58:16;;;;;;;13.03;4.60;;;;;;;19.10;70.94;99220.50;6159140;23;20224;-89
2023/06/07 02:01:06;;;;;;;9.03;4.10;;;;;;;19.11;71.51;99220.34;6159252;23;20502;-89
2023/06/07 02:03:43;;;;;;;12.53;4.50;;;;;;;19.10;71.76;99216.03;6185680;23;20225;-89
2023/06/07 02:06:13;;;;;;;8.43;4.53;;;;;;;19.12;71.34;99224.72;6186052;23;20138;-89
2023/06/07 02:08:52;;;;;;;12.07;4.47;;;;;;;19.13;71.65;99230.88;6186325;23;20135;-90
2023/06/07 02:11:22;;;;;;;9.97;4.70;;;;;;;19.09;72.14;99237.41;6185654;23;20198;-89
2023/06/07 02:13:50;;;;;;;13.97;5.13;;;;;;;19.01;72.63;99232.75;6159337;23;20154;-89
2023/06/07 02:16:17;;;;;;;14.50;5.70;;;;;;;19.03;73.01;99230.78;6159087;23;20484;-89
2023/06/07 02:18:44;;;;;;;8.57;4.60;;;;;;;19.17;72.75;99240.25;6185023;23;20208;-89
2023/06/07 02:21:11;;;;;;;9.73;4.73;;;;;;;19.12;72.36;99242.47;6160103;23;20443;-90
2023/06/07 02:23:38;;;;;;;13.10;4.90;;;;;;;19.18;72.35;99244.59;6185118;23;20166;-89
2023/06/07 02:26:05;;;;;;;14.10;5.37;;;;;;;19.14;72.57;99249.31;6185130;23;20146;-89
2023/06/07 02:28:34;;;;;;;9.77;4.07;;;;;;;19.10;72.79;99241.75;6186047;23;20233;-89
2023/06/07 02:31:03;;;;;;;13.30;5.93;;;;;;;19.19;72.45;99232.97;6161751;23;20244;-89
2023/06/07 02:33:33;;;;;;;12.17;5.63;;;;;;;19.23;72.35;99245.88;6186612;23;20269;-89
2023/06/07 02:35:58;;;;;;;15.10;6.07;;;;;;;19.31;72.25;99251.34;6187189;23;20227;-90
2023/06/07 02:38:27;;;;;;;15.53;6.63;;;;;;;19.31;72.74;99242.56;6186919;23;20255;-90
2023/06/07 02:40:54;;;;;;;17.07;6.83;;;;;;;19.42;72.07;99248.66;6187249;23;20222;-90
2023/06/07 02:43:20;;;;;;;11.33;5.10;;;;;;;19.51;71.79;99247.00;6160859;23;20487;-90
2023/06/07 02:45:54;;;;;;;19.07;7.40;;;;;;;19.50;71.69;99245.31;6187190;23;20183;-90
2023/06/07 02:48:22;;;;;;;20.67;7.47;;;;;;;19.34;72.95;99239.66;6160852;23;20143;-89
2023/06/07 02:50:49;;;;;;;23.70;8.77;;;;;;;19.40;72.88;99239.97;6186662;23;20178;-90
2023/06/07 02:53:19;;;;;;;21.33;8.30;;;;;;;19.46;72.83;99239.44;6161013;23;20536;-90
2023/06/07 02:55:59;;;;;;;;;;;;;;;;;;;;;
2023/06/07 02:58:26;;;;;;;31.53;10.70;;;;;;;19.48;72.89;99236.63;6187064;23;20641;-90
2023/06/07 03:00:54;;;;;;;23.47;10.50;;;;;;;19.49;72.72;99235.69;6160668;23;20233;-90
2023/06/07 03:03:30;;;;;;;31.97;10.83;;;;;;;19.52;72.21;99238.06;6160940;23;20579;-90
2023/06/07 03:06:24;;;;;;;24.40;11.00;;;;;;;19.55;72.62;99238.63;6161165;23;20618;-90
2023/06/07 03:09:19;;;;;;;;;;;;;;;;;;;;;
2023/06/07 03:12:00;;;;;;;23.83;10.47;;;;;;;19.59;72.49;99244.53;6187534;23;20245;-90
2023/06/07 03:14:48;;;;;;;;;;;;;;;;;;;;;
2023/06/07 03:17:29;;;;;;;26.70;11.07;;;;;;;19.52;72.84;99240.72;6187157;23;20234;-91
2023/06/07 03:20:04;;;;;;;22.43;9.53;;;;;;;19.51;72.73;99239.88;6161898;23;20150;-90
2023/06/07 03:22:53;;;;;;;30.33;12.77;;;;;;;19.36;73.82;99240.34;6160473;23;20210;-90
2023/06/07 03:28:18;;;;;;;28.47;11.37;;;;;;;19.40;74.54;99241.78;6140573;23;20187;-90
2023/06/07 03:31:40;;;;;;;30.13;12.70;;;;;;;19.41;74.74;99246.13;6160276;23;20179;-90
2023/06/07 03:34:06;;;;;;;21.03;9.77;;;;;;;19.51;73.49;99247.88;6184785;23;20202;-89
2023/06/07 03:40:13;;;;;;;;;;;;;;;;;;;;;
2023/06/07 03:46:43;;;;;;;;;;;;;;;;;;;;;
2023/06/07 03:49:21;;;;;;;32.13;13.07;;;;;;;19.39;74.44;99248.09;6186559;23;20518;-91
2023/06/07 03:52:29;;;;;;;;;;;;;;;;;;;;;
2023/06/07 03:58:02;;;;;;;28.57;13.37;;;;;;;19.45;73.92;99250.19;6075925;23;20235;-90
2023/06/07 04:00:54;;;;;;;25.90;12.77;;;;;;;19.47;73.75;99253.59;6156573;23;20574;-90
2023/06/07 04:03:34;;;;;;;;;;;;;;;;;;;;;
2023/06/07 04:06:01;;;;;;;29.97;13.07;;;;;;;19.53;73.12;99250.38;6186041;23;20641;-90
2023/06/07 04:08:32;;;;;;;27.60;12.87;;;;;;;19.53;73.09;99253.03;6160759;23;20946;-90
2023/06/07 04:10:58;;;;;;;26.00;13.53;;;;;;;19.54;73.29;99249.41;6160136;23;20178;-90
2023/06/07 04:13:26;;;;;;;29.80;12.27;;;;;;;19.60;72.95;99255.00;6186698;23;20281;-90
2023/06/07 04:15:58;;;;;;;29.10;13.93;;;;;;;19.62;73.08;99260.22;6185913;23;20180;-90
2023/06/07 04:18:54;;;;;;;29.17;12.43;;;;;;;19.61;72.61;99253.19;6186375;23;20277;-90
2023/06/07 04:21:22;;;;;;;26.93;12.93;;;;;;;19.59;72.60;99250.69;6159947;23;20150;-90
2023/06/07 04:24:12;;;;;;;24.67;11.93;;;;;;;19.60;72.66;99252.34;6159746;23;20509;-90
2023/06/07 04:26:53;;;;;;;29.40;12.23;;;;;;;19.57;73.18;99251.81;6159057;23;20154;-90
2023/06/07 04:29:43;;;;;;;;;;;;;;;;;;;;;
2023/06/07 04:32:43;;;;;;;26.37;14.07;;;;;;;19.50;74.36;99255.94;6184973;23;20154;-90
2023/06/07 04:35:16;;;;;;;23.43;12.30;;;;;;;19.62;74.04;99254.91;6158789;23;20225;-90
2023/06/07 04:38:36;;;;;;;;;;;;;;;;;;;;;
2023/06/07 04:41:18;;;;;;;;;;;;;;;;;;;;;
2023/06/07 04:44:33;;;;;;;22.57;12.30;;;;;;;19.91;72.51;99255.84;6185899;23;20233;-90
2023/06/07 04:47:12;;;;;;;;;;;;;;;;;;;;;
2023/06/07 04:50:18;;;;;;;;;;;;;;;;;;;;;
2023/06/07 04:53:19;;;;;;;23.87;13.00;;;;;;;19.97;72.19;99259.75;6185545;23;20240;-90
2023/06/07 04:55:58;;;;;;;24.13;12.33;;;;;;;20.08;71.98;99255.16;6182364;23;20609;-90
2023/06/07 04:58:39;;;;;;;22.17;10.63;;;;;;;20.14;71.52;99261.75;6160018;23;20145;-90
2023/06/07 05:01:39;;;;;;;;;;;;;;;;;;;;;
2023/06/07 05:04:19;;;;;;;20.43;9.53;;;;;;;20.32;68.95;99253.94;6186019;23;20148;-90
2023/06/07 05:06:45;;;;;;;15.57;8.30;;;;;;;20.30;68.81;99255.91;6185876;23;20159;-89
2023/06/07 05:09:13;;;;;;;17.63;8.90;;;;;;;20.28;68.69;99256.06;6185594;23;20153;-89
2023/06/07 05:11:41;;;;;;;17.77;10.53;;;;;;;20.28;68.67;99252.56;6185364;23;20176;-90
2023/06/07 05:14:06;;;;;;;18.90;10.13;;;;;;;20.21;69.61;99257.56;6185884;23;20154;-89
2023/06/07 05:16:35;;;;;;;15.90;8.60;;;;;;;20.32;68.94;99259.28;6185867;23;20602;-89
2023/06/07 05:19:03;;;;;;;17.87;9.67;;;;;;;20.20;69.79;99259.38;6185541;23;20146;-89
2023/06/07 05:21:28;;;;;;;20.33;9.93;;;;;;;20.30;69.31;99261.25;6185753;23;20143;-89
2023/06/07 05:23:54;;;;;;;17.03;9.03;;;;;;;20.36;68.52;99261.50;6185391;23;20183;-89
2023/06/07 05:26:22;;;;;;;17.20;9.83;;;;;;;20.39;68.26;99266.56;6185365;23;20579;-89
2023/06/07 05:28:49;;;;;;;21.17;9.90;;;;;;;20.42;68.43;99265.44;6159233;23;20158;-89
2023/06/07 05:31:18;;;;;;;16.63;9.17;;;;;;;20.39;68.83;99266.56;6185367;23;20178;-89
2023/06/07 05:33:45;;;;;;;21.13;10.10;;;;;;;20.48;69.11;99265.75;6185180;23;20221;-90
2023/06/07 05:36:11;;;;;;;16.90;8.63;;;;;;;20.67;67.53;99270.22;6184539;23;20601;-90
2023/06/07 05:38:40;;;;;;;22.67;9.13;;;;;;;20.67;66.74;99275.56;6185539;23;20176;-89
2023/06/07 05:41:08;;;;;;;19.57;8.73;;;;;;;20.66;66.54;99263.22;6159681;23;20150;-89
2023/06/07 05:44:25;;;;;;;15.43;9.03;;;;;;;20.59;67.02;99272.75;6185335;23;20174;-90
2023/06/07 05:46:33;;;;;;;18.30;9.40;;;;;;;20.51;67.03;99272.63;6171353;23;20165;-91
2023/06/07 05:49:10;;;;;;;;;;;;;;;;;;;;;
2023/06/07 05:51:38;;;;;;;18.37;9.83;;;;;;;20.60;67.23;99269.09;6186351;23;20244;-90
2023/06/07 05:54:21;;;;;;;;;;;;;;;;;;;;;
2023/06/07 05:56:47;;;;;;;17.27;9.53;;;;;;;20.83;66.48;99260.66;6185946;23;20226;-90
2023/06/07 05:59:51;;;;;;;22.00;8.93;;;;;;;20.92;66.87;99269.63;6159366;23;20186;-90
2023/06/07 06:02:32;;;;;;;13.90;7.90;;;;;;;20.94;67.61;99267.66;6159787;23;20209;-90
2023/06/07 06:05:04;;;;;;;18.67;8.60;;;;;;;21.00;65.85;99272.44;6161286;23;20216;-90
2023/06/07 06:07:35;;;;;;;16.40;9.07;;;;;;;21.07;65.17;99267.41;6185028;23;20138;-90
2023/06/07 06:10:04;;;;;;;16.83;8.00;;;;;;;21.12;65.04;99268.63;6186822;23;20189;-90
2023/06/07 06:13:21;;;;;;;16.07;8.47;;;;;;;21.12;65.97;99276.63;6187541;23;20190;-90
2023/06/07 06:16:04;;;;;;;16.10;8.37;;;;;;;21.23;65.88;99272.97;6172899;23;20667;-89
2023/06/07 06:18:57;;;;;;;;;;;;;;;;;;;;;
2023/06/07 06:21:24;;;;;;;17.37;7.83;;;;;;;21.29;64.48;99273.25;6187121;23;20210;-89
2023/06/07 06:24:07;;;;;;;;;;;;;;;;;;;;;
2023/06/07 06:26:45;;;;;;;;;;;;;;;;;;;;;
2023/06/07 06:29:32;;;;;;;12.33;6.40;;;;;;;21.46;64.59;99274.31;6186871;23;20225;-90
2023/06/07 06:32:00;;;;;;;11.20;6.10;;;;;;;21.49;62.69;99270.53;6160696;23;20209;-89
2023/06/07 06:37:48;;;;;;;12.43;6.17;;;;;;;21.71;63.08;99286.13;6155851;23;20159;-90
2023/06/07 06:40:18;;;;;;;11.10;6.13;;;;;;;21.73;61.48;99279.66;6186028;23;20501;-90
2023/06/07 06:42:44;;;;;;;11.37;6.13;;;;;;;21.73;61.57;99276.16;6187305;23;20134;-90
2023/06/07 06:45:23;;;;;;;10.80;5.93;;;;;;;21.70;61.98;99276.44;6187438;23;20151;-91
2023/06/07 06:48:09;;;;;;;11.97;5.07;;;;;;;21.73;62.33;99278.81;6160615;23;20181;-89
2023/06/07 06:51:26;;;;;;;14.60;6.27;;;;;;;21.86;64.82;99277.53;6187208;23;20170;-90
2023/06/07 06:54:32;;;;;;;;;;;;;;;;;;;;;
2023/06/07 06:56:58;;;;;;;12.17;5.13;;;;;;;22.12;61.25;99272.31;6067737;23;20237;-89
2023/06/07 06:59:35;;;;;;;10.47;5.20;;;;;;;22.23;62.22;99269.44;6043377;23;20240;-90
2023/06/07 07:02:06;;;;;;;13.23;6.20;;;;;;;22.49;60.98;99270.38;6043330;23;20164;-90
2023/06/07 07:04:39;;;;;;;10.67;6.57;;;;;;;22.64;61.81;99260.84;6067737;23;20161;-90
2023/06/07 07:07:32;;;;;;;;;;;;;;;;;;;;;
2023/06/07 07:10:21;;;;;;;;;;;;;;;;;;;;;
2023/06/07 07:12:51;;;;;;;9.87;6.53;;;;;;;23.10;58.67;99272.25;6067852;23;20445;-90
2023/06/07 07:15:27;;;;;;;19.40;7.43;;;;;;;23.29;57.55;99260.53;6043552;23;20157;-90
2023/06/07 07:17:54;;;;;;;13.13;6.97;;;;;;;23.45;57.64;99261.50;6043129;23;20176;-90
2023/06/07 07:20:25;;;;;;;13.03;6.43;;;;;;;23.68;56.62;99264.44;6043169;23;20213;-90
2023/06/07 07:22:50;;;;;;;11.80;6.40;;;;;;;23.73;56.30;99262.97;6067169;23;20225;-90
2023/06/07 07:25:24;;;;;;;12.97;7.57;;;;;;;23.83;56.00;99255.63;6043229;23;20228;-90
2023/06/07 07:31:46;;;;;;;11.37;6.70;;;;;;;24.10;53.75;99253.75;6166060;23;20213;-90
2023/06/07 07:34:17;;;;;;;10.83;6.77;;;;;;;23.97;52.62;99262.22;6185854;23;20205;-89
2023/06/07 07:36:43;;;;;;;9.50;5.97;;;;;;;24.00;53.16;99261.06;6160942;23;20158;-90
2023/06/07 07:39:11;;;;;;;9.63;5.83;;;;;;;24.09;53.36;99247.53;6186321;23;20485;-89
2023/06/07 07:41:40;;;;;;;10.07;5.53;;;;;;;24.23;55.47;99254.13;6159869;23;20158;-89
2023/06/07 07:44:13;;;;;;;11.27;6.73;;;;;;;24.54;54.88;99252.50;6186184;23;20150;-89
2023/06/07 07:46:39;;;;;;;10.67;6.77;;;;;;;24.72;52.38;99255.84;6186837;23;20149;-89
2023/06/07 07:49:09;;;;;;;10.87;6.40;;;;;;;24.85;53.37;99256.22;6160080;23;20158;-89
2023/06/07 07:51:37;;;;;;;14.20;6.03;;;;;;;25.01;50.33;99250.84;6159870;23;20636;-89
2023/06/07 07:54:09;;;;;;;11.40;6.17;;;;;;;25.02;50.30;99255.22;6186305;23;20151;-90
2023/06/07 07:56:38;;;;;;;9.17;5.43;;;;;;;24.94;49.25;99249.84;6160114;23;20147;-90
2023/06/07 07:59:03;;;;;;;13.00;6.10;;;;;;;24.93;49.96;99248.16;6186322;23;20150;-89
2023/06/07 08:02:07;;;;;;;;;;;;;;;;;;;;;
2023/06/07 08:05:17;;;;;;;9.77;6.37;;;;;;;25.09;51.09;99254.50;6185229;23;20229;-91
2023/06/07 08:07:44;;;;;;;10.23;6.27;;;;;;;25.09;49.80;99241.94;6137180;23;20180;-90
2023/06/07 08:10:24;;;;;;;10.40;5.47;;;;;;;24.96;50.77;99241.63;6185823;23;20182;-91
2023/06/07 08:13:34;;;;;;;9.50;6.73;;;;;;;25.07;52.51;99248.50;6159717;23;20158;-91
2023/06/07 08:17:19;;;;;;;11.53;6.50;;;;;;;25.30;51.73;99246.75;6184814;23;20213;-91
2023/06/07 08:19:54;;;;;;;10.20;5.10;;;;;;;25.64;49.86;99247.38;6058864;23;20180;-91
2023/06/07 08:43:49;;;;;;;8.50;5.17;;;;;;;26.84;46.97;99218.09;5818075;24;20259;-92
2023/06/07 08:55:00;;;;;;;;;;;;;;;;;;;;;
2023/06/07 09:09:15;;;;;;;9.10;4.13;;;;;;;27.62;46.59;99218.47;5626157;25;20179;-91
2023/06/07 09:15:56;;;;;;;;;;;;;;;;;;;;;
2023/06/07 09:22:25;;;;;;;8.30;3.83;;;;;;;28.30;43.15;99207.28;5687611;25;20162;-90
2023/06/07 09:37:20;;;;;;;;;;;;;;;;;;;;;
2023/06/07 09:41:16;;;;;;;7.80;3.65;;;;;;;28.40;44.27;99188.97;5766623;24;20686;-91
2023/06/07 09:56:11;;;;;;;;;;;;;;;;;;;;;
2023/06/07 10:02:02;;;;;;;5.25;2.42;;;;;;;28.76;41.15;99185.34;5963954;23;20186;-90
2023/06/07 10:04:33;;;;;;;4.45;2.30;;;;;;;28.78;40.96;99181.44;5926910;24;20168;-90
2023/06/07 10:07:35;;;;;;;5.35;2.97;;;;;;;29.19;40.74;99178.81;6001208;23;20226;-91
2023/06/07 10:11:01;;;;;;;;;;;;;;;;;;;;;
2023/06/07 10:14:06;;;;;;;3.50;1.77;;;;;;;29.47;38.49;99176.94;6010251;23;20273;-92
2023/06/07 10:21:01;;;;;;;7.53;1.80;;;;;;;29.31;37.84;99176.41;5844255;24;20163;-90
2023/06/07 10:28:05;;;;;;;;;;;;;;;;;;;;;
2023/06/07 10:31:07;;;;;;;;;;;;;;;;;;;;;
2023/06/07 10:34:37;;;;;;;;;;;;;;;;;;;;;
2023/06/07 10:37:55;;;;;;;;;;;;;;;;;;;;;
2023/06/07 10:44:59;;;;;;;8.00;2.35;;;;;;;29.92;37.81;99169.25;5845430;24;20245;-91
2023/06/07 10:51:51;;;;;;;8.35;2.42;;;;;;;30.17;37.12;99168.47;5663859;25;20202;-91
2023/06/07 10:55:21;;;;;;;4.00;1.80;;;;;;;30.23;38.63;99170.38;5643494;25;20593;-91
2023/06/07 10:58:48;;;;;;;;;;;;;;;;;;;;;
2023/06/07 11:02:36;;;;;;;5.82;1.80;;;;;;;30.11;38.20;99169.28;5694370;25;20249;-90
2023/06/07 11:09:42;;;;;;;;;;;;;;;;;;;;;
2023/06/07 11:12:40;;;;;;;4.68;2.10;;;;;;;30.57;36.41;99149.63;5917925;24;20208;-91
2023/06/07 11:16:04;;;;;;;3.97;2.22;;;;;;;30.54;36.91;99150.88;5903493;24;20164;-91
2023/06/07 11:22:35;;;;;;;;;;;;;;;;;;;;;
2023/06/07 11:25:12;;;;;;;6.30;2.28;;;;;;;30.14;35.70;99144.53;6000219;23;20244;-90
2023/06/07 11:32:00;;;;;;;5.93;1.85;;;;;;;30.19;36.74;99127.72;6118073;23;20258;-91
2023/06/07 11:38:21;;;;;;;4.10;1.88;;;;;;;30.55;37.74;99124.66;6097347;23;20603;-91
2023/06/07 11:41:37;;;;;;;4.40;2.03;;;;;;;30.66;36.58;99122.13;6125168;23;20160;-90
2023/06/07 11:44:39;;;;;;;;;;;;;;;;;;;;;
2023/06/07 11:47:13;;;;;;;4.45;2.15;;;;;;;30.83;34.90;99117.13;6114211;23;20270;-90
2023/06/07 11:50:10;;;;;;;;;;;;;;;;;;;;;
2023/06/07 11:53:20;;;;;;;8.05;2.00;;;;;;;31.28;34.50;99118.09;6127947;23;20235;-91
2023/06/07 11:56:27;;;;;;;;;;;;;;;;;;;;;
2023/06/07 11:59:07;;;;;;;;;;;;;;;;;;;;;
2023/06/07 12:01:49;;;;;;;;;;;;;;;;;;;;;
2023/06/07 12:08:39;;;;;;;3.72;1.80;;;;;;;31.41;34.54;99090.97;6099147;23;20151;-91
2023/06/07 12:15:46;;;;;;;;;;;;;;;;;;;;;
2023/06/07 12:25:38;;;;;;;2.38;1.27;;;;;;;31.40;32.70;99075.72;5985134;23;20166;-91
2023/06/07 12:28:09;;;;;;;4.07;1.40;;;;;;;31.46;32.90;99080.34;5986157;23;20147;-91
2023/06/07 12:31:28;;;;;;;;;;;;;;;;;;;;;
2023/06/07 12:40:12;;;;;;;3.10;1.33;;;;;;;31.56;34.43;99056.31;6081316;23;20540;-90
2023/06/07 12:54:01;;;;;;;3.42;1.45;;;;;;;31.61;32.70;99042.94;5878266;24;20177;-91
2023/06/07 13:03:11;;;;;;;3.05;1.17;;;;;;;31.73;32.46;99026.81;5953506;24;20696;-91
2023/06/07 13:06:30;;;;;;;;;;;;;;;;;;;;;
2023/06/07 13:09:27;;;;;;;2.92;1.23;;;;;;;31.92;31.42;99023.16;5946287;24;20668;-90
2023/06/07 13:15:59;;;;;;;5.13;1.40;;;;;;;31.80;29.96;99031.16;5925008;24;20264;-91
2023/06/07 13:19:49;;;;;;;;;;;;;;;;;;;;;
2023/06/07 13:26:35;;;;;;;5.13;1.60;;;;;;;31.98;29.82;99020.38;5864033;24;20681;-91
2023/06/07 13:29:50;;;;;;;3.92;1.70;;;;;;;32.10;29.91;99020.53;5895694;24;20161;-91
2023/06/07 13:32:27;;;;;;;2.17;0.98;;;;;;;32.06;28.28;99022.84;5892914;24;20203;-90
2023/06/07 13:34:56;;;;;;;4.03;1.30;;;;;;;31.96;29.93;99014.34;6004256;23;20195;-91
2023/06/07 13:38:20;;;;;;;2.03;1.08;;;;;;;31.76;30.04;99013.63;6083282;23;20182;-91
2023/06/07 13:41:39;;;;;;;;;;;;;;;;;;;;;
2023/06/07 13:47:19;;;;;;;2.33;1.17;;;;;;;31.61;29.95;98995.00;6008588;23;20174;-90
2023/06/07 13:50:14;;;;;;;3.60;1.20;;;;;;;31.49;29.96;98999.47;6009649;23;20214;-91
2023/06/07 13:53:11;;;;;;;;;;;;;;;;;;;;;
2023/06/07 13:55:53;;;;;;;;;;;;;;;;;;;;;
2023/06/07 13:58:41;;;;;;;2.75;1.00;;;;;;;31.96;29.31;98997.25;6126603;23;20235;-91
2023/06/07 14:01:46;;;;;;;;;;;;;;;;;;;;;
2023/06/07 14:04:16;;;;;;;6.13;1.80;;;;;;;32.15;28.57;98985.44;6126375;23;20659;-91
2023/06/07 14:06:53;;;;;;;5.15;1.13;;;;;;;32.07;29.99;98986.56;6127394;23;20148;-91
2023/06/07 14:09:20;;;;;;;3.53;1.50;;;;;;;32.01;28.90;98989.31;6125953;23;20140;-91
2023/06/07 14:12:00;;;;;;;;;;;;;;;;;;;;;
2023/06/07 14:14:51;;;;;;;3.72;1.20;;;;;;;32.02;29.37;98980.94;6125997;23;20156;-91
2023/06/07 14:17:41;;;;;;;4.18;1.50;;;;;;;32.28;29.31;98987.19;6100406;23;20144;-91
2023/06/07 14:24:08;;;;;;;;;;;;;;;;;;;;;
2023/06/07 14:27:36;;;;;;;4.10;1.42;;;;;;;31.59;29.51;98969.16;6004212;23;20237;-92
2023/06/07 14:33:23;;;;;;;;;;;;;;;;;;;;;
2023/06/07 14:36:51;;;;;;;;;;;;;;;;;;;;;
2023/06/07 14:40:09;;;;;;;6.10;1.38;;;;;;;31.57;30.82;98958.56;5984217;23;20240;-91
2023/06/07 14:49:23;;;;;;;2.83;1.15;;;;;;;31.89;30.16;98959.31;6000566;23;20250;-91
2023/06/07 14:52:59;;;;;;;;;;;;;;;;;;;;;
2023/06/07 14:55:19;;;;;;;3.67;1.35;;;;;;;31.91;28.90;98948.28;6002294;23;20461;-90
2023/06/07 14:58:47;;;;;;;;;;;;;;;;;;;;;
2023/06/07 15:05:33;;;;;;;;;;;;;;;;;;;;;
2023/06/07 15:08:53;;;;;;;;;;;;;;;;;;;;;
2023/06/07 15:22:44;;;;;;;;;;;;;;;;;;;;;
2023/06/07 15:29:24;;;;;;;;;;;;;;;;;;;;;
2023/06/07 15:32:17;;;;;;;3.90;1.30;;;;;;;31.41;31.39;98953.63;6036706;23;20256;-91
2023/06/07 15:41:20;;;;;;;;;;;;;;;;;;;;;
2023/06/07 15:44:36;;;;;;;;;;;;;;;;;;;;;
2023/06/07 15:47:35;;;;;;;3.17;1.33;;;;;;;31.37;31.56;98938.00;6127640;23;20604;-91
2023/06/07 15:50:16;;;;;;;4.35;1.58;;;;;;;31.14;31.81;98929.59;6101197;23;20156;-91
2023/06/07 15:52:53;;;;;;;;;;;;;;;;;;;;;
2023/06/07 15:55:25;;;;;;;3.47;1.50;;;;;;;30.84;31.74;98930.16;6126948;23;20238;-90
2023/06/07 15:58:07;;;;;;;;;;;;;;;;;;;;;
2023/06/07 16:00:46;;;;;;;3.85;1.38;;;;;;;31.06;31.23;98929.84;6127911;23;20207;-91
2023/06/07 16:03:14;;;;;;;4.15;1.40;;;;;;;30.88;32.39;98931.38;6101183;23;20150;-91
2023/06/07 16:06:13;;;;;;;;;;;;;;;;;;;;;
2023/06/07 16:09:07;;;;;;;;;;;;;;;;;;;;;
2023/06/07 16:12:09;;;;;;;2.35;1.20;;;;;;;30.61;32.86;98937.13;6118338;23;20181;-92
2023/06/07 16:15:10;;;;;;;;;;;;;;;;;;;;;
2023/06/07 16:17:36;;;;;;;3.30;1.10;;;;;;;30.35;34.01;98940.69;6115661;23;20243;-89
2023/06/07 16:20:12;;;;;;;4.63;1.30;;;;;;;30.33;33.37;98940.06;6101504;23;20239;-91
2023/06/07 16:23:00;;;;;;;10.38;1.85;;;;;;;30.30;34.29;98935.91;6100998;23;20148;-91
2023/06/07 16:25:38;;;;;;;5.15;1.20;;;;;;;30.27;33.79;98939.03;6102056;23;20151;-90
2023/06/07 16:28:03;;;;;;;7.13;0.90;;;;;;;30.12;34.26;98940.31;6100815;23;20160;-90
2023/06/07 16:30:30;;;;;;;3.63;1.10;;;;;;;30.10;34.04;98934.28;6100825;23;20155;-91
2023/06/07 16:32:57;;;;;;;2.30;1.00;;;;;;;30.14;34.28;98932.81;6127212;23;20210;-90
2023/06/07 16:35:23;;;;;;;4.93;1.50;;;;;;;30.04;34.24;98941.34;6126218;23;20350;-90
2023/06/07 16:37:55;;;;;;;5.93;1.58;;;;;;;29.97;34.40;98945.94;6100774;23;20623;-90
2023/06/07 16:40:45;;;;;;;2.17;1.05;;;;;;;29.92;34.39;98951.16;6127009;23;20158;-90
2023/06/07 16:43:26;;;;;;;3.50;1.05;;;;;;;29.77;34.21;98948.59;6126688;23;20199;-90
2023/06/07 16:46:10;;;;;;;7.35;1.17;;;;;;;29.73;34.82;98951.94;6124981;23;20148;-90
2023/06/07 16:48:57;;;;;;;4.22;1.23;;;;;;;29.63;34.87;98948.81;6101969;23;20144;-91
2023/06/07 16:51:27;;;;;;;4.93;1.75;;;;;;;29.58;35.05;98945.91;6125800;23;20610;-90
2023/06/07 16:54:01;;;;;;;2.42;0.98;;;;;;;29.51;34.85;98940.47;6101068;23;20159;-90
2023/06/07 16:56:34;;;;;;;4.75;1.30;;;;;;;29.44;35.41;98947.75;6100746;23;20158;-90
2023/06/07 16:59:05;;;;;;;3.70;1.58;;;;;;;29.29;36.31;98947.09;6126212;23;20163;-90
2023/06/07 17:01:42;;;;;;;;;;;;;;;;;;;;;
2023/06/07 17:04:11;;;;;;;4.32;1.33;;;;;;;29.06;35.83;98946.59;6124635;23;20210;-90
2023/06/07 17:06:39;;;;;;;2.88;1.20;;;;;;;29.03;35.93;98947.84;6124520;23;20580;-90
2023/06/07 17:09:30;;;;;;;2.38;1.00;;;;;;;28.74;36.50;98958.94;6125483;23;20182;-90
2023/06/07 17:11:58;;;;;;;3.78;1.33;;;;;;;28.59;37.05;98961.72;6099374;23;20171;-90
2023/06/07 17:14:44;;;;;;;2.83;1.05;;;;;;;28.53;37.38;98962.53;6125479;23;20230;-91
2023/06/07 17:17:24;;;;;;;;;;;;;;;;;;;;;
2023/06/07 17:20:23;;;;;;;;;;;;;;;;;;;;;
2023/06/07 17:23:03;;;;;;;2.80;1.38;;;;;;;28.26;38.00;98971.47;6125256;23;20526;-91
2023/06/07 17:25:28;;;;;;;3.97;1.23;;;;;;;28.25;37.83;98974.38;6113842;23;20163;-90
2023/06/07 17:28:13;;;;;;;;;;;;;;;;;;;;;
2023/06/07 17:30:56;;;;;;;2.20;0.77;;;;;;;28.14;37.55;98978.47;6125551;23;20246;-90
2023/06/07 17:33:29;;;;;;;10.02;1.73;;;;;;;28.01;38.22;98979.16;6125596;23;20143;-90
2023/06/07 17:42:15;;;;;;;;;;;;;;;;;;;;;
2023/06/07 17:45:04;;;;;;;4.75;1.42;;;;;;;27.74;39.29;98987.19;6125646;23;20207;-91
2023/06/07 17:47:50;;;;;;;6.28;1.70;;;;;;;27.69;39.37;98992.31;6124647;23;20547;-90
2023/06/07 17:50:26;;;;;;;3.70;1.30;;;;;;;27.60;39.21;98983.53;6099567;23;20611;-90
2023/06/07 17:53:12;;;;;;;3.03;1.42;;;;;;;27.56;39.76;98984.13;6099710;23;20155;-90
2023/06/07 17:55:42;;;;;;;4.10;1.13;;;;;;;27.40;39.46;98980.66;6099912;23;20140;-90